This is the latest recevied weather packets stored in our database for station/object K7ZQU-7. If no packets are shown the sender has not sent any weather packets the latest 10 day(s).
| Time | Temp. | Humidity | Pressure | Rain* | Wind** | Luminosity | Snow |
|---|---|---|---|---|---|---|---|
| 1777746243 | 14.44° C | 55% | 1014.5 hPa | 0 mm | 1.79 m/s, 195° | - | - |
| 1777745941 | 14.44° C | 55% | 1014.6 hPa | 0 mm | 1.34 m/s, 34° | - | - |
| 1777745642 | 13.89° C | 58% | 1014.4 hPa | 0 mm | 0 m/s | - | - |
| 1777745343 | 13.89° C | 59% | 1014.5 hPa | 0 mm | 0.45 m/s, 163° | - | - |
| 1777744745 | 13.33° C | 55% | 1014.4 hPa | 0 mm | 2.24 m/s, 135° | - | - |
| 1777744443 | 13.33° C | 55% | 1014.4 hPa | 0 mm | 2.24 m/s, 117° | - | - |
| 1777743845 | 13.33° C | 58% | 1014.1 hPa | 0 mm | 0.89 m/s, 114° | - | - |
| 1777743247 | 13.33° C | 58% | 1014.1 hPa | 0 mm | 1.79 m/s, 204° | - | - |
| 1777742946 | 13.89° C | 59% | 1014.1 hPa | 0 mm | 1.79 m/s, 257° | - | - |
| 1777742646 | 13.33° C | 61% | 1014 hPa | 0 mm | 0.89 m/s, 32° | - | - |
| 1777742347 | 13.33° C | 64% | 1014 hPa | 0 mm | 0.89 m/s, 146° | - | - |
| 1777742048 | 12.78° C | 63% | 1014 hPa | 0 mm | 1.34 m/s, 177° | - | - |
| 1777741749 | 12.78° C | 65% | 1014 hPa | 0 mm | 1.34 m/s, 117° | - | - |
| 1777741448 | 12.22° C | 64% | 1014 hPa | 0 mm | 0.89 m/s, 235° | - | - |
| 1777741148 | 12.22° C | 64% | 1013.9 hPa | 0 mm | 1.34 m/s, 222° | - | - |
| 1777740849 | 12.22° C | 66% | 1013.9 hPa | 0 mm | 1.34 m/s, 212° | - | - |
| 1777740550 | 12.22° C | 66% | 1013.9 hPa | 0 mm | 1.34 m/s, 253° | - | - |
| 1777740251 | 12.22° C | 66% | 1013.8 hPa | 0 mm | 1.34 m/s, 155° | - | - |
| 1777739652 | 11.67° C | 67% | 1013.8 hPa | 0 mm | 2.68 m/s, 332° | - | - |
| 1777739053 | 11.11° C | 68% | 1013.8 hPa | 0 mm | 1.34 m/s, 177° | - | - |
| 1777738754 | 11.11° C | 67% | 1013.8 hPa | 0 mm | 2.24 m/s, 34° | - | - |
| 1777738452 | 11.11° C | 70% | 1013.8 hPa | 0 mm | 0.89 m/s, 160° | - | - |
| 1777738153 | 10.56° C | 69% | 1013.9 hPa | 0 mm | 1.34 m/s, 160° | - | - |
| 1777737854 | 11.11° C | 70% | 1013.8 hPa | 0 mm | 1.34 m/s, 179° | - | - |
| 1777737555 | 10.56° C | 71% | 1013.8 hPa | 0 mm | 1.34 m/s, 90° | - | - |
* Rain latest hour (hover to see other rain measurements)
** Current wind speed in m/s (hover to see current wind gust speed)